Time;durP1;ratioP1;P1;durP2;ratioP2;P2;SDS_P1;SDS_P2;PMS_P1;PMS_P2;Temp;Humidity;BMP_temperature;BMP_pressure;BME280_temperature;BME280_humidity;BME280_pressure;Samples;Min_cycle;Max_cycle;Signal;HPM_P1;HPM_P2
2023/12/22 00:00:30;;;;;;;2.33;0.88;;;11.50;68.20;;;7.11;99.34;94584.41;4971046;28;20100;-51
2023/12/22 00:02:56;;;;;;;1.15;0.63;;;11.50;67.80;;;7.11;99.10;94587.06;4969571;28;20065;-57
2023/12/22 00:05:22;;;;;;;0.70;0.60;;;11.50;67.50;;;7.11;97.84;94589.72;4971321;28;20080;-57
2023/12/22 00:07:47;;;;;;;1.00;0.65;;;11.60;67.40;;;7.15;97.70;94588.09;4971423;28;20388;-54
2023/12/22 00:10:14;;;;;;;3.15;0.70;;;11.60;67.10;;;7.17;97.84;94593.13;4969852;28;20473;-53
2023/12/22 00:12:40;;;;;;;1.50;0.60;;;11.60;67.00;;;7.16;98.27;94594.97;4971076;28;20037;-55
2023/12/22 00:15:07;;;;;;;1.30;0.50;;;11.60;66.80;;;7.16;98.50;94602.94;4970209;28;20034;-51
2023/12/22 00:17:32;;;;;;;4.20;0.90;;;11.60;66.70;;;7.19;99.47;94598.97;4953796;28;20120;-50
2023/12/22 00:20:02;;;;;;;2.38;0.85;;;11.70;66.80;;;7.13;100.00;94611.41;4973869;28;20494;-50
2023/12/22 00:22:29;;;;;;;0.73;0.60;;;11.70;66.80;;;7.06;100.00;94604.81;4969937;28;20064;-52
2023/12/22 00:24:55;;;;;;;1.40;0.60;;;11.60;66.70;;;7.04;100.00;94609.56;4971335;28;20034;-50
2023/12/22 00:27:21;;;;;;;1.80;0.82;;;11.50;66.90;;;6.92;100.00;94618.53;4970097;28;20049;-51
2023/12/22 00:29:47;;;;;;;2.08;0.73;;;11.40;67.20;;;6.89;100.00;94632.34;4970738;28;20036;-57
2023/12/22 00:32:13;;;;;;;2.78;0.65;;;11.40;67.60;;;6.85;100.00;94633.13;4971941;28;20502;-53
2023/12/22 00:34:39;;;;;;;0.98;0.60;;;11.30;67.90;;;6.76;100.00;94640.00;4969761;28;20487;-54
2023/12/22 00:37:04;;;;;;;1.60;0.55;;;11.20;68.10;;;6.80;100.00;94633.91;4970819;28;20049;-50
2023/12/22 00:39:31;;;;;;;1.65;0.80;;;11.10;68.20;;;6.80;100.00;94618.03;4948000;28;20034;-55
2023/12/22 00:41:57;;;;;;;3.33;0.70;;;11.10;68.30;;;6.78;100.00;94632.59;4970537;28;20057;-50
2023/12/22 00:44:23;;;;;;;1.45;0.70;;;11.10;68.40;;;6.85;100.00;94627.81;4969528;28;20030;-51
2023/12/22 00:46:49;;;;;;;4.10;0.80;;;11.10;68.40;;;6.82;100.00;94623.06;4971441;28;20026;-57
2023/12/22 00:49:15;;;;;;;3.90;0.75;;;11.10;68.50;;;6.84;100.00;94629.69;4970556;28;20104;-53
2023/12/22 00:51:41;;;;;;;4.13;0.82;;;11.10;68.30;;;6.89;100.00;94629.69;4974644;28;20030;-51
2023/12/22 00:54:06;;;;;;;3.25;0.98;;;11.10;68.30;;;6.92;100.00;94638.94;4975022;28;20045;-51
2023/12/22 00:56:32;;;;;;;2.35;1.00;;;11.20;68.30;;;6.90;100.00;94639.22;4970520;28;20068;-52
2023/12/22 00:58:58;;;;;;;4.82;0.90;;;11.30;68.10;;;6.97;100.00;94646.09;4969420;28;20032;-50
2023/12/22 01:01:24;;;;;;;5.20;0.88;;;11.30;68.00;;;6.93;100.00;94649.28;4970585;28;20030;-51
2023/12/22 01:03:50;;;;;;;3.65;1.08;;;11.30;67.90;;;6.94;100.00;94639.47;4969954;28;20037;-52
2023/12/22 01:06:15;;;;;;;2.83;1.00;;;11.40;67.80;;;6.98;99.92;94669.66;4970741;28;20033;-53
2023/12/22 01:08:41;;;;;;;1.77;0.80;;;11.40;67.50;;;7.00;99.96;94666.75;4969313;28;20034;-55
2023/12/22 01:11:07;;;;;;;2.65;0.90;;;11.40;67.30;;;7.01;98.12;94665.69;4970413;28;20401;-49
2023/12/22 01:13:33;;;;;;;5.07;1.30;;;11.50;67.10;;;7.05;97.97;94678.16;4970367;28;20041;-49
2023/12/22 01:15:59;;;;;;;3.88;0.95;;;11.50;66.70;;;7.05;97.95;94670.22;4969449;28;20061;-53
2023/12/22 01:18:28;;;;;;;4.10;1.45;;;11.50;66.60;;;7.04;97.67;94670.47;4968629;28;20053;-50
2023/12/22 01:20:54;;;;;;;1.83;0.60;;;11.60;66.50;;;7.06;97.78;94673.66;4955017;28;20117;-55
2023/12/22 01:23:20;;;;;;;4.13;1.05;;;11.60;66.30;;;7.04;97.38;94681.06;4970416;28;20105;-53
2023/12/22 01:25:46;;;;;;;3.75;1.05;;;11.60;66.20;;;7.01;97.30;94687.66;4970613;28;20022;-55
2023/12/22 01:28:11;;;;;;;1.52;0.70;;;11.60;65.90;;;6.98;97.64;94687.41;4969698;28;20064;-49
2023/12/22 01:30:37;;;;;;;2.33;0.70;;;11.60;65.60;;;6.92;98.25;94694.53;4969971;28;20045;-51
2023/12/22 01:33:03;;;;;;;2.03;0.73;;;11.60;65.40;;;6.83;99.26;94702.22;4969508;28;20553;-51
2023/12/22 01:35:29;;;;;;;2.50;0.70;;;11.50;65.40;;;6.76;100.00;94690.28;4970275;28;20444;-50
2023/12/22 01:37:56;;;;;;;2.55;0.90;;;11.50;65.50;;;6.68;100.00;94697.69;4970423;28;20018;-56
2023/12/22 01:40:22;;;;;;;3.97;0.75;;;11.50;65.60;;;6.61;100.00;94697.16;4968472;28;20038;-50
2023/12/22 01:42:48;;;;;;;1.30;0.80;;;11.40;65.70;;;6.57;100.00;94690.75;4998055;23;20049;-57
2023/12/22 01:45:14;;;;;;;2.50;0.85;;;11.30;65.80;;;6.51;100.00;94698.94;4989212;28;20037;-59
2023/12/22 01:47:41;;;;;;;1.90;0.90;;;11.30;65.90;;;6.45;100.00;94685.69;4994725;28;20017;-59
2023/12/22 01:50:10;;;;;;;2.40;0.98;;;11.30;66.10;;;6.30;100.00;94671.63;4977056;28;20029;-59
2023/12/22 01:52:41;;;;;;;2.05;0.90;;;11.20;65.90;;;6.17;100.00;94676.38;4992487;28;20072;-57
2023/12/22 01:55:12;;;;;;;1.98;0.80;;;11.10;65.60;;;6.11;100.00;94672.09;4994011;28;20388;-57
2023/12/22 01:57:40;;;;;;;2.83;1.02;;;11.00;65.40;;;5.99;99.60;94680.25;4992103;28;20018;-58
2023/12/22 02:00:09;;;;;;;1.60;0.90;;;10.90;65.40;;;5.87;98.83;94695.47;4978860;28;20021;-59
2023/12/22 02:02:35;;;;;;;0.85;0.60;;;10.80;65.20;;;5.86;99.88;94708.94;4992249;28;20056;-57
2023/12/22 02:05:01;;;;;;;2.85;0.80;;;10.70;65.20;;;5.82;100.00;94706.00;4993515;28;20034;-58
2023/12/22 02:07:28;;;;;;;5.05;0.80;;;10.70;65.40;;;5.84;100.00;94711.06;4994384;28;20025;-58
2023/12/22 02:09:54;;;;;;;2.08;0.95;;;10.60;65.60;;;5.82;100.00;94710.50;4992826;28;20527;-58
2023/12/22 02:12:20;;;;;;;1.95;0.90;;;10.60;66.00;;;5.83;100.00;94714.72;4993272;28;20105;-57
2023/12/22 02:14:45;;;;;;;1.08;0.70;;;10.60;66.20;;;5.84;100.00;94711.84;4993172;28;20500;-55
2023/12/22 02:17:22;;;;;;;4.50;1.40;;;10.60;66.40;;;5.88;100.00;94706.84;4976635;28;20108;-57
2023/12/22 02:19:50;;;;;;;2.17;0.63;;;10.60;66.60;;;5.92;100.00;94713.19;4979156;28;20027;-55
2023/12/22 02:22:16;;;;;;;2.40;0.90;;;10.60;66.70;;;5.91;100.00;94717.69;4992163;28;20454;-58
2023/12/22 02:24:42;;;;;;;3.28;1.00;;;10.60;66.90;;;5.95;100.00;94724.09;4993482;28;20057;-59
2023/12/22 02:27:44;;;;;;;2.33;0.90;;;10.70;67.10;;;5.93;100.00;94714.84;4975625;28;20021;-58
2023/12/22 02:30:58;;;;;;;5.10;1.30;;;10.60;67.20;;;5.88;100.00;94718.22;4989585;28;20029;-57
2023/12/22 02:33:29;;;;;;;5.25;1.25;;;10.60;67.70;;;5.87;100.00;94718.47;4960665;28;20299;-56
2023/12/22 02:36:05;;;;;;;5.43;1.40;;;10.50;68.00;;;5.89;100.00;94719.00;4993544;28;20440;-58
2023/12/22 02:38:34;;;;;;;5.32;1.33;;;10.50;68.20;;;5.89;100.00;94716.34;4976699;28;20022;-56
2023/12/22 02:41:01;;;;;;;4.07;1.30;;;10.40;68.30;;;5.90;100.00;94712.69;4979234;28;20017;-57
2023/12/22 02:43:28;;;;;;;4.07;1.13;;;10.40;68.60;;;5.83;100.00;94714.72;4975277;28;20042;-57
2023/12/22 02:45:54;;;;;;;4.07;1.25;;;10.40;68.90;;;5.78;100.00;94711.00;4974422;28;20270;-56
2023/12/22 02:48:20;;;;;;;2.17;0.80;;;10.40;69.20;;;5.75;100.00;94711.53;4991393;28;20430;-58
2023/12/22 02:50:46;;;;;;;4.75;0.80;;;10.40;70.00;;;5.75;100.00;94719.44;4995545;28;20036;-54
2023/12/22 02:53:12;;;;;;;2.33;1.00;;;10.30;69.40;;;5.74;100.00;94703.88;4992593;28;20037;-58
2023/12/22 02:55:37;;;;;;;5.25;1.05;;;10.30;69.60;;;5.71;100.00;94704.38;4992653;28;20025;-58
2023/12/22 02:58:03;;;;;;;6.28;1.40;;;10.30;69.80;;;5.72;100.00;94692.75;4991562;28;20483;-59
2023/12/22 03:00:29;;;;;;;6.05;1.10;;;10.20;70.10;;;5.71;100.00;94683.25;4993149;28;20033;-57
2023/12/22 03:02:55;;;;;;;3.42;0.95;;;10.20;70.40;;;5.70;100.00;94698.31;4992420;28;20026;-58
2023/12/22 03:05:21;;;;;;;4.47;1.25;;;10.20;70.90;;;5.68;100.00;94681.91;4994102;28;20029;-59
2023/12/22 03:07:47;;;;;;;5.43;1.10;;;10.10;71.30;;;5.72;100.00;94679.53;4993207;28;20025;-59
2023/12/22 03:10:12;;;;;;;1.48;0.82;;;10.20;71.40;;;5.74;100.00;94693.28;4990403;28;20029;-59
2023/12/22 03:12:38;;;;;;;2.75;0.80;;;10.10;71.60;;;5.74;100.00;94696.72;4991926;28;20030;-57
2023/12/22 03:15:06;;;;;;;3.22;0.70;;;10.10;71.90;;;5.76;100.00;94707.03;4992192;28;20044;-59
2023/12/22 03:17:32;;;;;;;4.88;0.82;;;10.20;72.10;;;5.75;100.00;94716.03;4993696;28;20017;-56
2023/12/22 03:19:57;;;;;;;1.20;0.70;;;10.10;72.00;;;5.84;100.00;94726.91;4997456;28;20495;-57
2023/12/22 03:22:23;;;;;;;1.88;0.98;;;10.20;72.00;;;5.85;100.00;94726.66;4992175;28;20100;-56
2023/12/22 03:24:49;;;;;;;2.72;0.95;;;10.20;72.00;;;5.84;100.00;94729.56;4975886;28;20029;-55
2023/12/22 03:27:16;;;;;;;3.55;0.82;;;10.20;72.10;;;5.84;100.00;94725.06;4992052;28;20488;-58
2023/12/22 03:29:44;;;;;;;5.47;0.90;;;10.20;72.00;;;5.85;100.00;94731.94;4993507;28;20465;-58
2023/12/22 03:32:10;;;;;;;1.33;0.70;;;10.20;72.00;;;5.86;100.00;94725.63;4973980;28;20030;-58
2023/12/22 03:34:36;;;;;;;1.38;0.60;;;10.20;71.90;;;5.87;100.00;94726.41;4989994;28;20030;-58
2023/12/22 03:37:02;;;;;;;3.45;0.98;;;10.20;71.80;;;5.84;100.00;94719.78;4992423;28;20013;-55
2023/12/22 03:39:27;;;;;;;2.55;0.95;;;10.30;71.80;;;5.87;100.00;94726.41;4995233;28;20095;-58
2023/12/22 03:41:53;;;;;;;3.10;0.93;;;10.30;71.80;;;5.87;100.00;94719.28;4992116;28;20537;-57
2023/12/22 03:44:19;;;;;;;1.75;0.80;;;10.30;71.70;;;5.89;100.00;94726.94;4975431;28;20499;-51
2023/12/22 03:46:45;;;;;;;6.45;1.27;;;10.30;72.40;;;5.89;100.00;94722.47;4995862;28;20036;-58
2023/12/22 03:49:11;;;;;;;1.38;0.80;;;10.40;71.50;;;5.92;100.00;94732.53;4992805;28;20383;-55
2023/12/22 03:51:37;;;;;;;3.67;0.80;;;10.40;71.40;;;5.89;100.00;94734.84;4994703;28;20419;-57
2023/12/22 03:54:03;;;;;;;3.70;1.10;;;10.40;71.30;;;5.88;100.00;94739.34;4992729;28;20026;-54
2023/12/22 03:56:30;;;;;;;1.58;1.05;;;10.40;72.00;;;5.88;100.00;94755.22;4974497;28;20100;-58
2023/12/22 03:58:56;;;;;;;5.07;1.58;;;10.40;71.10;;;5.89;100.00;94756.00;4991517;28;20014;-56
2023/12/22 04:01:22;;;;;;;4.00;1.05;;;10.40;71.00;;;5.91;100.00;94753.91;4991907;28;20025;-55
2023/12/22 04:03:47;;;;;;;8.05;1.02;;;10.40;70.90;;;5.93;100.00;94750.00;4991317;28;20104;-58
2023/12/22 04:06:13;;;;;;;6.68;1.45;;;10.40;70.80;;;5.96;100.00;94749.50;4992056;28;20030;-58
2023/12/22 04:08:40;;;;;;;5.28;1.35;;;10.40;70.70;;;5.94;100.00;94748.94;4991492;28;20033;-51
2023/12/22 04:11:05;;;;;;;3.83;1.25;;;10.40;70.70;;;5.99;100.00;94756.13;4989544;28;20415;-57
2023/12/22 04:13:31;;;;;;;2.88;1.30;;;10.50;70.60;;;5.98;100.00;94751.88;4991708;28;20080;-55
2023/12/22 04:15:57;;;;;;;8.27;1.70;;;10.50;70.60;;;6.00;100.00;94752.41;4991538;28;20452;-57
2023/12/22 04:18:23;;;;;;;4.70;1.30;;;10.50;70.30;;;6.02;100.00;94761.69;4993024;28;20032;-59
2023/12/22 04:20:55;;;;;;;5.57;1.38;;;10.50;70.10;;;6.04;100.00;94766.72;4994796;28;20053;-58
2023/12/22 04:23:21;;;;;;;10.83;1.50;;;10.60;70.10;;;6.03;100.00;94760.63;4991322;28;20022;-58
2023/12/22 04:25:47;;;;;;;7.35;1.75;;;10.60;69.90;;;6.04;100.00;94769.34;4991171;28;20032;-59
2023/12/22 04:28:13;;;;;;;3.95;1.38;;;10.60;69.80;;;6.05;100.00;94757.75;4989327;28;20028;-59
2023/12/22 04:30:39;;;;;;;5.05;1.50;;;10.60;69.50;;;6.08;100.00;94756.41;4989938;28;20030;-59
2023/12/22 04:33:05;;;;;;;3.75;1.20;;;10.60;69.30;;;6.10;100.00;94763.03;4992247;28;20059;-60
2023/12/22 04:35:31;;;;;;;4.50;1.30;;;10.60;69.00;;;6.12;100.00;94776.81;4994063;28;20033;-59
2023/12/22 04:37:57;;;;;;;5.55;1.10;;;10.70;68.80;;;6.09;100.00;94772.03;4994111;28;20022;-59
2023/12/22 04:40:22;;;;;;;3.53;0.98;;;10.70;68.40;;;6.09;100.00;94782.59;4992716;28;20117;-58
2023/12/22 04:42:50;;;;;;;4.07;1.23;;;10.70;68.10;;;6.08;100.00;94774.91;4994105;28;20104;-59
2023/12/22 04:45:17;;;;;;;4.22;1.10;;;10.70;67.80;;;6.07;100.00;94770.69;4992188;28;20056;-60
2023/12/22 04:47:43;;;;;;;4.88;1.00;;;10.70;67.40;;;6.08;99.64;94788.13;4993748;28;20372;-59
2023/12/22 04:50:09;;;;;;;4.05;1.15;;;10.70;67.30;;;6.11;100.00;94801.66;4992597;28;20092;-60
2023/12/22 04:52:35;;;;;;;3.30;1.00;;;10.70;67.30;;;5.99;99.15;94798.41;4995680;28;20017;-59
2023/12/22 04:55:01;;;;;;;5.38;1.30;;;10.70;67.10;;;6.04;100.00;94806.38;4993027;28;20420;-60
2023/12/22 04:57:26;;;;;;;4.68;1.30;;;10.70;66.90;;;6.00;100.00;94815.88;4990044;28;20026;-56
2023/12/22 04:59:52;;;;;;;5.75;1.50;;;10.70;66.90;;;6.03;100.00;94823.28;4990556;28;20089;-54
2023/12/22 05:02:18;;;;;;;7.00;1.50;;;10.70;67.00;;;6.00;100.00;94831.72;4990803;28;20033;-57
2023/12/22 05:04:44;;;;;;;6.40;1.45;;;10.70;66.90;;;6.00;100.00;94829.88;4990605;28;20080;-56
2023/12/22 05:07:10;;;;;;;5.13;1.65;;;10.70;66.90;;;5.97;100.00;94825.09;4990850;28;20117;-59
2023/12/22 05:09:37;;;;;;;5.15;1.13;;;10.70;66.90;;;5.96;100.00;94836.72;4985658;28;20057;-56
2023/12/22 05:12:03;;;;;;;5.53;1.33;;;10.70;66.90;;;5.92;100.00;94832.16;4991474;28;20032;-57
2023/12/22 05:14:29;;;;;;;3.55;1.30;;;10.70;66.80;;;5.91;100.00;94841.16;4991536;28;20034;-58
2023/12/22 05:16:56;;;;;;;7.70;1.70;;;10.70;66.80;;;5.95;100.00;94839.59;4990516;28;20539;-60
2023/12/22 05:19:22;;;;;;;5.57;1.60;;;10.70;66.80;;;5.89;100.00;94844.06;4993592;28;20468;-59
2023/12/22 05:21:49;;;;;;;6.68;1.30;;;10.60;67.50;;;5.84;100.00;94840.56;4996627;28;20033;-59
2023/12/22 05:24:15;;;;;;;5.90;1.30;;;10.60;66.50;;;5.84;99.77;94841.34;4996483;28;20017;-57
2023/12/22 05:26:41;;;;;;;4.63;1.38;;;10.60;66.40;;;5.83;99.87;94847.69;4995474;28;20024;-57
2023/12/22 05:29:08;;;;;;;4.53;1.10;;;10.60;66.40;;;5.80;100.00;94849.00;4976054;28;20140;-59
2023/12/22 05:31:34;;;;;;;10.15;1.77;;;10.60;66.30;;;5.79;99.42;94842.09;4977870;28;20018;-58
2023/12/22 05:34:00;;;;;;;6.22;1.77;;;10.60;66.30;;;5.75;98.62;94843.66;4994445;28;20368;-59
2023/12/22 05:36:26;;;;;;;7.90;1.42;;;10.60;66.30;;;5.79;98.63;94854.53;4977489;28;20013;-59
2023/12/22 05:38:52;;;;;;;8.43;1.50;;;10.50;66.00;;;5.76;97.77;94847.88;4990250;28;20487;-58
2023/12/22 05:41:18;;;;;;;7.35;1.52;;;10.50;65.90;;;5.83;98.00;94841.59;4994312;28;20017;-58
2023/12/22 05:43:43;;;;;;;4.90;1.45;;;10.60;65.90;;;5.80;96.90;94838.44;4995064;28;20054;-58
2023/12/22 05:46:09;;;;;;;7.07;1.67;;;10.50;65.60;;;5.85;97.54;94844.78;4993481;28;20034;-59
2023/12/22 05:48:36;;;;;;;5.15;1.27;;;10.50;65.60;;;5.86;97.01;94851.66;4994331;28;20049;-59
2023/12/22 05:51:03;;;;;;;8.80;1.60;;;10.50;65.50;;;5.89;97.52;94853.81;4975844;28;20400;-58
2023/12/22 05:53:29;;;;;;;10.75;1.65;;;10.60;65.70;;;5.87;97.89;94848.00;4994096;28;20040;-59
2023/12/22 05:55:55;;;;;;;4.85;1.33;;;10.60;65.60;;;5.79;96.78;94841.31;4993197;28;20032;-56
2023/12/22 05:58:21;;;;;;;7.32;2.15;;;10.60;65.50;;;5.85;98.12;94850.88;4974563;28;20026;-56
2023/12/22 06:00:47;;;;;;;7.75;1.80;;;10.60;65.50;;;5.85;97.78;94845.59;4992710;28;20040;-59
2023/12/22 06:03:14;;;;;;;6.20;1.33;;;10.60;65.40;;;5.82;97.26;94854.03;4993683;28;20516;-58
2023/12/22 06:05:40;;;;;;;6.30;1.70;;;10.60;65.40;;;5.87;97.77;94859.34;4992697;28;20033;-56
2023/12/22 06:08:06;;;;;;;11.38;1.90;;;10.60;65.40;;;5.86;97.37;94854.31;4992762;28;20025;-58
2023/12/22 06:10:31;;;;;;;6.00;1.60;;;10.60;65.30;;;5.90;97.14;94852.78;4991371;28;20105;-57
2023/12/22 06:12:57;;;;;;;10.30;2.20;;;10.60;65.20;;;5.88;96.71;94844.28;4993628;28;20120;-59
2023/12/22 06:15:24;;;;;;;7.25;1.73;;;10.60;65.20;;;5.90;95.81;94853.56;4992627;28;20040;-56
2023/12/22 06:17:50;;;;;;;6.13;1.80;;;10.60;65.00;;;5.94;94.71;94853.88;4993717;28;20075;-53
2023/12/22 06:20:15;;;;;;;7.07;2.05;;;10.60;64.90;;;5.97;94.81;94856.81;4996176;28;20038;-54
2023/12/22 06:22:42;;;;;;;11.35;2.25;;;10.60;64.80;;;5.96;94.58;94859.72;4977802;28;20029;-54
2023/12/22 06:25:09;;;;;;;4.70;1.73;;;10.60;64.70;;;5.98;94.01;94853.13;4970752;28;20033;-59
2023/12/22 06:27:35;;;;;;;7.80;1.73;;;10.60;64.60;;;6.00;93.48;94852.88;4992032;28;20025;-58
2023/12/22 06:30:01;;;;;;;11.35;2.00;;;10.70;64.60;;;6.01;93.01;94857.09;4990147;28;20026;-56
2023/12/22 06:32:26;;;;;;;6.22;1.65;;;10.70;64.50;;;6.00;92.48;94869.53;4990334;28;20238;-57
2023/12/22 06:34:52;;;;;;;10.02;2.08;;;10.70;64.30;;;6.03;92.83;94861.09;4993482;28;20080;-57
2023/12/22 06:37:18;;;;;;;10.93;2.45;;;10.70;64.30;;;6.03;92.89;94862.94;4994185;28;20025;-59
2023/12/22 06:39:44;;;;;;;8.55;2.00;;;10.70;64.20;;;6.03;93.03;94861.09;4989940;28;20091;-55
2023/12/22 06:42:12;;;;;;;8.77;1.70;;;10.70;64.20;;;6.01;91.44;94865.81;4994271;28;20041;-55
2023/12/22 06:44:38;;;;;;;7.90;1.67;;;10.70;64.00;;;6.08;91.39;94870.94;4991847;28;20095;-57
2023/12/22 06:47:05;;;;;;;9.63;2.17;;;10.70;63.90;;;6.08;93.56;94878.03;4990995;28;20108;-57
2023/12/22 06:49:31;;;;;;;9.32;1.90;;;10.70;64.00;;;6.05;92.15;94865.31;4992309;28;20032;-58
2023/12/22 06:51:57;;;;;;;11.30;1.52;;;10.70;64.00;;;6.07;92.82;94881.75;4992024;28;20117;-57
2023/12/22 06:54:23;;;;;;;8.10;1.85;;;10.70;63.90;;;6.09;93.28;94884.94;4991610;28;20057;-57
2023/12/22 06:56:48;;;;;;;10.52;2.40;;;10.70;63.90;;;6.05;91.10;94874.06;4990780;28;20029;-55
2023/12/22 06:59:14;;;;;;;11.77;2.72;;;10.70;63.60;;;6.09;90.97;94882.28;4975755;28;20029;-58
2023/12/22 07:01:40;;;;;;;7.55;1.38;;;10.70;63.50;;;6.09;90.84;94877.00;4990126;28;20026;-59
2023/12/22 07:04:06;;;;;;;7.43;1.80;;;10.70;63.50;;;6.09;90.61;94877.00;4974459;28;20036;-59
2023/12/22 07:06:34;;;;;;;5.20;1.83;;;10.70;63.30;;;6.14;90.03;94879.66;4976056;28;20026;-59
2023/12/22 07:09:12;;;;;;;11.30;1.92;;;10.70;63.20;;;6.17;90.52;94897.69;4993808;28;20064;-57
2023/12/22 07:11:47;;;;;;;8.93;2.38;;;10.80;63.30;;;6.11;90.78;94904.78;4995317;28;20562;-60
2023/12/22 07:14:13;;;;;;;12.73;2.17;;;10.80;63.30;;;6.09;89.69;94906.09;4965490;28;20117;-59
2023/12/22 07:16:39;;;;;;;11.13;1.77;;;10.80;63.20;;;6.11;90.22;94918.03;4992411;28;20659;-59
2023/12/22 07:19:05;;;;;;;7.10;1.90;;;10.80;62.90;;;6.11;89.91;94898.69;4995830;28;20032;-59
2023/12/22 07:21:31;;;;;;;9.50;1.50;;;10.80;62.80;;;6.15;90.42;94915.66;4973851;28;20120;-59
2023/12/22 07:24:00;;;;;;;7.38;1.80;;;10.80;62.70;;;6.16;89.80;94906.66;4991621;28;20026;-58
2023/12/22 07:26:26;;;;;;;8.82;1.98;;;10.90;62.70;;;6.17;89.68;94921.47;4994541;28;20018;-57
2023/12/22 07:28:53;;;;;;;15.13;1.98;;;10.80;62.50;;;6.21;88.38;94957.75;4990742;28;20087;-57
2023/12/22 07:31:20;;;;;;;10.80;2.55;;;10.90;62.30;;;6.21;88.30;94949.81;4974904;28;20029;-55
2023/12/22 07:33:46;;;;;;;8.25;1.60;;;10.90;62.10;;;6.24;87.57;94961.75;4985189;28;20072;-58
2023/12/22 07:36:12;;;;;;;9.52;1.80;;;10.90;61.90;;;6.28;87.45;94972.63;4992324;28;20423;-58
2023/12/22 07:38:41;;;;;;;8.30;1.42;;;10.90;61.90;;;6.28;87.36;94962.84;4992751;28;20111;-59
2023/12/22 07:41:08;;;;;;;9.43;1.40;;;10.90;61.90;;;6.33;88.06;94977.94;4974531;28;20072;-55
2023/12/22 07:43:34;;;;;;;6.78;1.52;;;11.00;62.00;;;6.26;87.70;94976.31;5013006;23;20057;-51
2023/12/22 07:46:00;;;;;;;5.57;1.73;;;11.00;61.80;;;6.30;87.70;94975.78;4999757;28;20183;-52
2023/12/22 07:48:26;;;;;;;5.25;1.80;;;11.00;61.80;;;6.35;87.71;94994.38;5006313;28;20025;-53
2023/12/22 07:50:52;;;;;;;6.68;1.75;;;11.00;61.80;;;6.26;87.08;94989.53;4997037;28;20057;-53
2023/12/22 07:53:18;;;;;;;8.57;1.33;;;11.00;61.70;;;6.22;86.40;94985.78;5003811;28;20037;-56
2023/12/22 07:55:46;;;;;;;7.55;1.70;;;11.00;61.30;;;6.26;87.41;94989.53;5010416;28;20120;-55
2023/12/22 07:58:13;;;;;;;9.70;1.60;;;11.00;61.30;;;6.25;88.59;94997.72;5009376;28;20029;-54
2023/12/22 08:00:39;;;;;;;4.50;1.50;;;11.00;61.40;;;6.21;88.33;95005.38;5009871;28;20465;-52
2023/12/22 08:03:05;;;;;;;9.32;1.65;;;11.00;61.30;;;6.20;88.77;94979.94;5007689;28;20033;-50
2023/12/22 08:05:33;;;;;;;5.55;1.60;;;11.00;61.20;;;6.23;89.61;94999.81;5008383;28;20033;-52
2023/12/22 08:07:59;;;;;;;8.75;1.60;;;11.00;61.30;;;6.22;89.37;94999.03;5010419;28;20390;-51
2023/12/22 08:10:27;;;;;;;4.15;1.30;;;11.00;61.40;;;6.20;91.04;95006.41;5008807;28;20096;-51
2023/12/22 08:12:53;;;;;;;8.05;2.05;;;11.00;61.40;;;6.24;90.61;95009.38;5009757;28;20395;-50
2023/12/22 08:15:18;;;;;;;5.25;1.48;;;11.00;61.50;;;6.22;90.72;95009.59;5008786;28;20021;-53
2023/12/22 08:17:51;;;;;;;6.47;1.63;;;11.10;61.60;;;6.24;90.75;95017.31;5010039;28;20490;-55
2023/12/22 08:20:21;;;;;;;5.28;1.42;;;11.10;61.70;;;6.21;90.75;95015.94;5009786;28;20154;-52
2023/12/22 08:22:49;;;;;;;8.82;2.08;;;11.00;61.60;;;6.19;90.73;95022.53;5009222;28;20025;-56
2023/12/22 08:25:19;;;;;;;5.70;1.77;;;11.00;61.60;;;6.17;91.19;95027.25;5010068;28;20025;-54
2023/12/22 08:27:45;;;;;;;5.70;1.52;;;11.00;61.70;;;6.22;93.02;95022.81;5007257;28;20154;-57
2023/12/22 08:30:12;;;;;;;10.45;2.05;;;11.00;61.80;;;6.19;92.21;95020.69;5009875;28;20086;-57
2023/12/22 08:32:39;;;;;;;9.48;1.55;;;11.00;61.90;;;6.19;93.62;95017.25;5009677;28;20086;-55
2023/12/22 08:35:06;;;;;;;6.15;1.58;;;11.00;62.00;;;6.16;93.61;95015.09;5012787;28;20032;-57
2023/12/22 08:37:32;;;;;;;7.53;2.30;;;11.00;62.10;;;6.16;93.31;95015.09;5009884;28;20444;-55
2023/12/22 08:39:58;;;;;;;6.95;1.70;;;11.00;62.10;;;6.19;93.28;95014.59;5008410;28;20119;-56
2023/12/22 08:42:26;;;;;;;7.55;1.38;;;10.90;62.10;;;6.16;92.39;95023.81;5009398;28;20021;-55
2023/12/22 08:44:51;;;;;;;8.30;2.47;;;10.90;62.10;;;6.18;92.08;95027.03;4991607;28;20142;-55
2023/12/22 08:47:17;;;;;;;7.85;1.50;;;10.90;62.10;;;6.20;91.89;95018.81;5010801;28;20056;-58
2023/12/22 08:49:43;;;;;;;6.07;1.42;;;10.90;62.10;;;6.21;91.50;95005.38;5009112;28;20037;-56
2023/12/22 08:52:09;;;;;;;11.60;2.28;;;10.90;61.90;;;6.25;91.62;95001.16;5006833;28;20363;-54
2023/12/22 08:54:35;;;;;;;9.93;1.85;;;11.00;62.10;;;6.27;91.72;95006.22;5009687;28;20032;-56
2023/12/22 08:57:03;;;;;;;6.72;1.65;;;11.00;62.10;;;6.22;90.99;95004.31;5015500;28;20021;-53
2023/12/22 08:59:29;;;;;;;8.82;1.70;;;11.00;61.90;;;6.27;91.95;95016.78;5015481;28;20390;-57
2023/12/22 09:01:55;;;;;;;8.27;2.10;;;11.00;61.90;;;6.32;92.62;95022.13;5015894;28;20028;-52
2023/12/22 09:04:23;;;;;;;5.90;1.40;;;11.00;62.00;;;6.35;92.52;95020.81;5015130;28;20048;-52
2023/12/22 09:06:50;;;;;;;7.28;1.52;;;11.00;62.10;;;6.24;90.94;95006.72;5016171;28;20021;-55
2023/12/22 09:09:17;;;;;;;5.38;1.38;;;11.00;62.10;;;6.27;91.97;95014.16;5011006;28;20380;-55
2023/12/22 09:11:43;;;;;;;10.02;2.03;;;11.00;62.00;;;6.34;93.60;95017.38;5015411;28;20025;-57
2023/12/22 09:14:09;;;;;;;7.18;1.42;;;11.10;62.20;;;6.24;91.53;95012.81;5015824;28;20037;-54
2023/12/22 09:16:36;;;;;;;6.22;1.80;;;11.00;62.10;;;6.32;93.31;95040.63;5016561;28;20372;-55
2023/12/22 09:19:03;;;;;;;9.13;1.92;;;11.00;62.20;;;6.28;92.54;95031.59;5015602;28;20086;-56
2023/12/22 09:21:30;;;;;;;8.48;1.60;;;11.00;62.20;;;6.31;91.89;95022.38;5012514;28;20043;-57
2023/12/22 09:23:56;;;;;;;5.85;1.40;;;11.00;62.30;;;6.29;92.05;95027.91;5015886;28;20111;-56
2023/12/22 09:26:22;;;;;;;4.82;1.25;;;11.00;62.20;;;6.30;92.67;95028.69;5015258;28;20025;-55
2023/12/22 09:28:48;;;;;;;6.15;1.23;;;11.00;62.30;;;6.24;91.65;95030.53;5012523;28;20036;-58
2023/12/22 09:31:14;;;;;;;5.20;1.20;;;11.10;62.30;;;6.24;91.39;95036.59;5015639;28;20025;-56
2023/12/22 09:33:42;;;;;;;3.35;1.10;;;11.10;62.00;;;6.25;91.37;95032.91;5013981;28;20116;-55
2023/12/22 09:36:09;;;;;;;5.63;1.58;;;11.10;62.00;;;6.26;91.94;95039.00;5015934;28;20017;-57
2023/12/22 09:38:36;;;;;;;5.35;1.30;;;11.10;62.10;;;6.22;92.50;95028.13;5015773;28;20044;-54
2023/12/22 09:41:02;;;;;;;6.72;1.55;;;11.10;62.00;;;6.24;92.51;95039.25;5013665;28;20421;-56
2023/12/22 09:43:32;;;;;;;3.45;1.20;;;11.10;62.10;;;6.25;92.66;95043.47;5015080;28;20037;-57
2023/12/22 09:45:59;;;;;;;7.88;1.30;;;11.10;62.10;;;6.29;93.22;95046.41;4997437;28;20025;-57
2023/12/22 09:48:28;;;;;;;5.40;1.33;;;11.10;62.10;;;6.25;92.51;95047.97;5013977;28;20036;-55
2023/12/22 09:50:55;;;;;;;4.15;1.15;;;11.20;62.10;;;6.26;91.25;95037.13;5012950;28;20033;-56
2023/12/22 09:53:24;;;;;;;3.88;1.30;;;11.20;62.00;;;6.32;91.42;95038.00;4997723;28;20029;-54
2023/12/22 09:55:52;;;;;;;8.65;1.80;;;11.30;61.80;;;6.35;90.77;95047.28;4998619;28;20028;-55
2023/12/22 09:58:18;;;;;;;8.93;1.08;;;11.30;61.80;;;6.40;91.15;95071.16;4998688;28;20029;-55
2023/12/22 10:00:47;;;;;;;10.10;2.15;;;11.30;61.70;;;6.38;91.16;95062.66;4997840;28;20029;-53
2023/12/22 10:03:15;;;;;;;6.05;1.40;;;11.30;61.60;;;6.40;91.27;95063.22;5013953;28;20107;-57
2023/12/22 10:05:43;;;;;;;7.18;1.35;;;11.30;61.60;;;6.40;90.38;95055.28;4999867;28;20024;-55
2023/12/22 10:08:12;;;;;;;7.57;1.55;;;11.40;61.50;;;6.46;91.35;95059.56;5014299;28;20118;-55
2023/12/22 10:10:40;;;;;;;5.78;1.40;;;11.40;61.40;;;6.47;90.21;95058.50;5006856;28;20028;-54
2023/12/22 10:13:09;;;;;;;10.20;1.73;;;11.50;61.30;;;6.50;90.29;95055.34;5012379;28;20052;-52
2023/12/22 10:15:46;;;;;;;4.78;1.20;;;11.50;61.20;;;6.48;89.84;95046.84;5011572;28;20594;-53
2023/12/22 10:18:14;;;;;;;4.00;1.30;;;11.60;60.90;;;6.52;89.77;95044.50;5012061;28;20025;-53
2023/12/22 10:20:40;;;;;;;6.25;1.15;;;11.60;60.90;;;6.52;89.36;95042.69;5011805;28;20384;-55